Time;durP1;ratioP1;P1;durP2;ratioP2;P2;SDS_P1;SDS_P2;PMS_P1;PMS_P2;Temp;Humidity;BMP_temperature;BMP_pressure;BME280_temperature;BME280_humidity;BME280_pressure;Samples;Min_cycle;Max_cycle;Signal;HPM_P1;HPM_P2
2021/12/27 08:14:48;;;;;;;2.77;2.17;;;3.70;99.90;;;;;;5146654;27;20256;-80
2021/12/27 08:17:14;;;;;;;3.10;2.70;;;3.80;99.90;;;;;;5138009;28;20234;-81
2021/12/27 08:19:39;;;;;;;4.33;3.10;;;3.90;99.90;;;;;;5135633;28;20178;-81
2021/12/27 08:22:05;;;;;;;3.70;3.40;;;4.20;99.90;;;;;;5136135;27;20182;-81
2021/12/27 08:24:31;;;;;;;4.33;2.90;;;4.50;99.90;;;;;;5134587;28;20187;-81
2021/12/27 08:26:57;;;;;;;3.10;2.73;;;4.70;99.90;;;;;;5133739;28;20252;-82
2021/12/27 08:29:22;;;;;;;3.50;3.20;;;4.70;99.90;;;;;;5135104;28;20178;-83
2021/12/27 08:31:48;;;;;;;3.77;2.90;;;4.80;99.90;;;;;;5136050;28;20171;-81
2021/12/27 08:34:14;;;;;;;8.33;2.93;;;5.20;99.90;;;;;;5136458;28;20202;-80
2021/12/27 08:36:39;;;;;;;4.60;2.73;;;5.70;99.90;;;;;;5138358;27;20267;-80
2021/12/27 08:39:05;;;;;;;3.33;3.00;;;6.20;99.90;;;;;;5136973;28;20540;-81
2021/12/27 08:41:31;;;;;;;3.00;2.70;;;6.40;99.90;;;;;;5137248;28;20261;-80
2021/12/27 08:44:03;;;;;;;2.83;2.53;;;6.50;99.90;;;;;;5138155;27;20643;-80
2021/12/27 08:46:30;;;;;;;2.87;2.27;;;6.70;99.90;;;;;;5136541;28;20297;-81
2021/12/27 08:48:55;;;;;;;3.20;2.67;;;7.00;99.90;;;;;;5137627;28;20187;-80
2021/12/27 08:51:21;;;;;;;4.57;3.00;;;7.10;99.90;;;;;;5138493;27;20255;-80
2021/12/27 08:53:47;;;;;;;4.30;3.50;;;7.20;99.90;;;;;;5139793;27;20203;-81
2021/12/27 08:56:12;;;;;;;4.60;3.47;;;7.20;99.90;;;;;;5138455;27;20187;-80
2021/12/27 08:58:38;;;;;;;5.77;3.10;;;7.30;99.90;;;;;;5138568;27;20171;-80
2021/12/27 09:01:06;;;;;;;3.90;3.50;;;8.00;99.90;;;;;;5136844;28;20179;-81
2021/12/27 09:03:31;;;;;;;3.20;2.00;;;8.10;99.90;;;;;;5138929;27;20254;-81
2021/12/27 09:05:57;;;;;;;5.73;3.87;;;8.30;99.90;;;;;;5137803;28;20271;-81
2021/12/27 09:08:22;;;;;;;3.57;2.83;;;8.50;99.90;;;;;;5139394;27;20171;-80
2021/12/27 09:10:48;;;;;;;2.13;1.73;;;8.70;99.90;;;;;;5139214;27;20179;-81
2021/12/27 09:13:14;;;;;;;7.33;5.10;;;8.50;99.90;;;;;;5138752;27;20238;-81
2021/12/27 09:15:39;;;;;;;2.07;1.57;;;8.50;99.90;;;;;;5137203;28;20189;-81
2021/12/27 09:18:05;;;;;;;3.33;2.20;;;8.50;99.90;;;;;;5138196;27;20202;-80
2021/12/27 09:20:31;;;;;;;5.63;3.60;;;8.40;99.90;;;;;;5136342;28;20171;-80
2021/12/27 09:22:57;;;;;;;3.50;3.03;;;8.70;99.90;;;;;;5136847;28;20167;-81
2021/12/27 09:25:23;;;;;;;3.57;2.90;;;9.00;99.90;;;;;;5130316;27;20174;-80
2021/12/27 09:27:49;;;;;;;3.83;2.53;;;8.60;99.90;;;;;;5123461;28;20193;-81
2021/12/27 09:30:15;;;;;;;4.80;3.10;;;;;;;;;;5123286;28;20195;-81
2021/12/27 09:32:41;;;;;;;2.57;2.07;;;8.50;99.90;;;;;;5124307;28;20196;-81
2021/12/27 09:35:07;;;;;;;2.27;1.90;;;8.60;99.90;;;;;;5121842;28;20171;-80
2021/12/27 09:37:33;;;;;;;2.33;1.80;;;8.60;99.90;;;;;;5121173;28;20191;-80
2021/12/27 09:39:59;;;;;;;1.73;1.60;;;8.40;99.90;;;;;;5121073;28;20171;-80
2021/12/27 09:42:26;;;;;;;2.00;1.80;;;8.40;99.90;;;;;;5120711;28;20214;-81
2021/12/27 09:44:53;;;;;;;2.20;1.80;;;8.60;99.90;;;;;;5119837;28;20173;-80
2021/12/27 09:47:19;;;;;;;2.43;2.10;;;9.00;99.90;;;;;;5118327;28;20193;-80
2021/12/27 09:49:46;;;;;;;1.70;1.50;;;9.30;99.90;;;;;;5120987;28;20169;-81
2021/12/27 09:52:12;;;;;;;2.43;2.00;;;9.80;99.90;;;;;;5123496;28;20168;-81
2021/12/27 09:54:38;;;;;;;2.33;1.97;;;10.10;99.90;;;;;;5123304;28;20208;-80
2021/12/27 09:57:04;;;;;;;2.80;2.40;;;10.10;99.90;;;;;;5122533;28;20198;-81
2021/12/27 09:59:30;;;;;;;2.57;2.03;;;10.30;99.90;;;;;;5124036;28;20177;-81
2021/12/27 10:01:56;;;;;;;3.53;2.70;;;10.10;99.90;;;;;;5122255;28;20260;-81
2021/12/27 10:04:22;;;;;;;2.70;2.13;;;10.20;99.90;;;;;;5123645;28;20226;-81
2021/12/27 10:06:48;;;;;;;4.67;2.77;;;10.50;99.90;;;;;;5123980;28;20541;-81
2021/12/27 10:09:13;;;;;;;2.30;2.00;;;10.40;99.90;;;;;;5124140;28;20214;-81
2021/12/27 10:11:44;;;;;;;2.37;1.87;;;10.20;99.90;;;;;;5131748;28;20239;-79
2021/12/27 10:14:13;;;;;;;2.93;2.27;;;10.10;99.90;;;;;;5136022;28;20236;-80
2021/12/27 10:16:48;;;;;;;3.40;2.57;;;10.50;99.90;;;;;;5136262;28;20257;-80
2021/12/27 10:19:16;;;;;;;4.33;2.40;;;10.90;99.90;;;;;;5123864;28;20196;-81
2021/12/27 10:21:43;;;;;;;2.23;1.97;;;11.20;99.90;;;;;;5123714;28;20237;-81
2021/12/27 10:24:15;;;;;;;2.40;1.60;;;11.00;99.90;;;;;;5123355;28;20196;-81
2021/12/27 10:26:43;;;;;;;2.00;1.90;;;11.30;99.90;;;;;;5122082;28;20205;-81
2021/12/27 10:29:18;;;;;;;3.07;2.33;;;11.10;99.90;;;;;;5122783;28;20630;-81
2021/12/27 10:31:57;;;;;;;2.00;1.80;;;11.10;99.90;;;;;;5123630;28;20181;-81
2021/12/27 10:34:30;;;;;;;2.40;2.20;;;11.50;99.90;;;;;;5124911;28;20299;-82
2021/12/27 10:37:00;;;;;;;2.43;2.20;;;12.00;99.90;;;;;;5124205;28;20198;-82
2021/12/27 10:39:45;;;;;;;1.73;1.60;;;12.20;99.90;;;;;;5123950;28;20176;-82
2021/12/27 10:42:13;;;;;;;2.20;2.00;;;12.20;99.90;;;;;;5120966;28;20188;-81
2021/12/27 10:44:40;;;;;;;2.33;2.00;;;12.40;99.90;;;;;;5122602;28;20182;-82
2021/12/27 10:47:37;;;;;;;2.50;2.00;;;12.40;99.90;;;;;;5122922;28;20198;-82
2021/12/27 10:50:09;;;;;;;2.57;2.00;;;12.80;99.90;;;;;;5123079;28;20174;-81
2021/12/27 10:52:53;;;;;;;5.37;2.60;;;13.10;99.90;;;;;;5124202;28;20507;-82
2021/12/27 10:55:42;;;;;;;2.40;2.20;;;13.10;99.90;;;;;;5122095;28;20171;-81
2021/12/27 10:58:19;;;;;;;3.37;2.37;;;13.10;99.90;;;;;;5111817;28;20211;-81
2021/12/27 11:00:48;;;;;;;2.50;2.27;;;13.30;99.90;;;;;;5123569;28;20185;-82
2021/12/27 11:03:23;;;;;;;2.47;2.27;;;13.00;99.90;;;;;;5122539;28;20180;-82
2021/12/27 11:05:49;;;;;;;4.23;2.43;;;12.60;99.90;;;;;;5123214;28;20178;-82
2021/12/27 11:08:51;;;;;;;2.83;2.33;;;12.20;99.90;;;;;;5123492;27;20199;-82
2021/12/27 11:11:18;;;;;;;3.20;2.33;;;12.30;99.90;;;;;;5122971;28;20185;-81
2021/12/27 11:13:46;;;;;;;2.27;1.93;;;12.90;99.90;;;;;;5122204;28;20198;-81
2021/12/27 11:16:12;;;;;;;3.17;1.97;;;13.50;99.90;;;;;;5121530;28;20200;-81
2021/12/27 11:18:38;;;;;;;1.90;1.60;;;13.90;99.90;;;;;;5121775;28;20182;-82
2021/12/27 11:21:10;;;;;;;2.17;1.57;;;14.30;99.90;;;;;;5122451;28;20171;-82
2021/12/27 11:23:37;;;;;;;2.20;2.00;;;14.60;99.90;;;;;;5120745;28;20188;-82
2021/12/27 11:26:09;;;;;;;4.70;1.53;;;14.90;99.90;;;;;;5122966;28;20198;-81
2021/12/27 11:28:37;;;;;;;1.63;1.47;;;15.20;99.90;;;;;;5122393;28;20259;-81
2021/12/27 11:31:24;;;;;;;1.50;1.30;;;15.50;99.90;;;;;;5122238;28;20241;-82
2021/12/27 11:34:01;;;;;;;1.63;1.10;;;15.70;99.90;;;;;;5121630;28;20249;-82
2021/12/27 11:36:29;;;;;;;1.27;1.03;;;15.50;99.90;;;;;;5120421;28;20196;-82
2021/12/27 11:38:55;;;;;;;0.80;0.80;;;15.30;99.90;;;;;;5123447;28;20246;-82
2021/12/27 11:41:24;;;;;;;1.13;1.00;;;14.90;99.90;;;;;;5123933;28;20167;-81
2021/12/27 11:44:07;;;;;;;1.10;1.00;;;14.80;99.90;;;;;;5123459;28;20249;-82
2021/12/27 11:46:48;;;;;;;1.00;0.80;;;14.80;99.90;;;;;;5121984;28;20216;-82
2021/12/27 11:49:15;;;;;;;7.90;0.97;;;15.00;99.90;;;;;;5123006;28;20176;-81
2021/12/27 11:51:40;;;;;;;1.07;0.80;;;15.00;99.90;;;;;;5123719;28;20255;-81
2021/12/27 11:54:30;;;;;;;0.93;0.87;;;15.30;99.90;;;;;;5122175;28;20207;-81
2021/12/27 11:56:57;;;;;;;0.70;0.70;;;15.70;99.90;;;;;;5122302;28;20219;-81
2021/12/27 11:59:28;;;;;;;1.03;0.93;;;15.60;99.90;;;;;;5123534;28;20175;-82
2021/12/27 12:01:56;;;;;;;1.17;0.80;;;15.40;99.90;;;;;;5122009;28;20782;-81
2021/12/27 12:04:38;;;;;;;1.10;0.80;;;15.20;99.90;;;;;;5123488;28;20341;-81
2021/12/27 12:07:05;;;;;;;1.70;0.70;;;15.10;99.90;;;;;;5122082;28;20268;-81
2021/12/27 12:09:31;;;;;;;0.73;0.70;;;14.80;99.90;;;;;;5122630;28;20172;-81
2021/12/27 12:12:02;;;;;;;1.10;1.00;;;13.90;99.90;;;;;;5121406;28;20176;-81
2021/12/27 12:14:34;;;;;;;0.70;0.70;;;13.40;99.90;;;;;;5121691;28;20223;-81
2021/12/27 12:17:03;;;;;;;0.80;0.80;;;12.50;99.90;;;;;;5121826;28;20199;-81
2021/12/27 12:19:42;;;;;;;0.70;0.60;;;11.80;99.90;;;;;;5121766;28;20175;-81
2021/12/27 12:22:34;;;;;;;0.87;0.77;;;11.20;99.90;;;;;;5123628;28;20178;-80
2021/12/27 12:25:18;;;;;;;1.23;0.83;;;10.80;99.90;;;;;;5122896;28;20189;-80
2021/12/27 12:28:05;;;;;;;0.63;0.63;;;10.50;99.90;;;;;;5123244;28;20225;-80
2021/12/27 12:30:34;;;;;;;0.90;0.73;;;10.50;99.90;;;;;;5122944;28;20534;-80
2021/12/27 12:33:10;;;;;;;0.83;0.60;;;10.40;99.90;;;;;;5121750;28;20186;-80
2021/12/27 12:35:45;;;;;;;0.83;0.50;;;10.40;99.90;;;;;;5121616;28;20270;-80
2021/12/27 12:38:38;;;;;;;0.80;0.60;;;10.40;99.90;;;;;;5120835;28;20240;-81
2021/12/27 12:41:17;;;;;;;0.60;0.60;;;10.30;99.90;;;;;;5121048;28;20172;-80
2021/12/27 12:43:57;;;;;;;0.70;0.60;;;10.30;99.90;;;;;;5118938;28;20203;-79
2021/12/27 12:46:36;;;;;;;0.60;0.50;;;10.40;99.90;;;;;;5118990;28;20218;-79
2021/12/27 12:49:13;;;;;;;2.23;0.83;;;10.40;99.90;;;;;;5118624;28;20657;-79
2021/12/27 12:51:38;;;;;;;1.77;0.80;;;10.30;99.90;;;;;;5120189;28;20172;-79
2021/12/27 12:54:08;;;;;;;2.90;1.40;;;10.30;99.90;;;;;;5116648;28;20187;-79
2021/12/27 12:56:36;;;;;;;0.70;0.70;;;10.30;99.90;;;;;;5119496;28;20199;-80
2021/12/27 12:59:03;;;;;;;2.73;1.20;;;10.20;99.90;;;;;;5120535;28;20180;-79
2021/12/27 13:01:29;;;;;;;1.67;1.20;;;10.00;99.90;;;;;;5125102;28;20171;-82
2021/12/27 13:03:59;;;;;;;2.00;1.67;;;10.00;99.90;;;;;;5125462;28;20206;-79
2021/12/27 13:06:25;;;;;;;2.80;1.97;;;10.00;99.90;;;;;;5125413;28;20203;-79
2021/12/27 13:09:02;;;;;;;1.57;1.40;;;9.90;99.90;;;;;;5125563;28;20160;-80
2021/12/27 13:11:28;;;;;;;2.30;1.67;;;9.80;99.90;;;;;;5123951;28;20171;-80
2021/12/27 13:13:59;;;;;;;1.60;1.50;;;9.80;99.90;;;;;;5125111;28;20727;-79
2021/12/27 13:16:30;;;;;;;2.20;1.30;;;9.60;99.90;;;;;;5123624;28;20202;-80
2021/12/27 13:18:56;;;;;;;1.67;1.20;;;9.50;99.90;;;;;;5123711;28;20187;-80
2021/12/27 13:21:22;;;;;;;1.83;1.20;;;9.30;99.90;;;;;;5124284;28;20176;-80
2021/12/27 13:23:48;;;;;;;1.70;1.40;;;9.20;99.90;;;;;;5124398;28;20195;-80
2021/12/27 13:26:16;;;;;;;1.30;1.10;;;9.20;99.90;;;;;;5125094;28;20198;-79
2021/12/27 13:28:44;;;;;;;1.23;1.00;;;9.20;99.90;;;;;;5124481;28;20204;-79
2021/12/27 13:31:15;;;;;;;2.57;1.10;;;9.10;99.90;;;;;;5123606;28;20232;-79
2021/12/27 13:33:51;;;;;;;1.37;1.27;;;9.10;99.90;;;;;;5124431;28;20585;-79
2021/12/27 13:36:27;;;;;;;1.50;1.17;;;9.10;99.90;;;;;;5124646;27;20251;-79
2021/12/27 13:39:08;;;;;;;1.57;1.47;;;9.20;99.90;;;;;;5123901;28;20167;-79
2021/12/27 13:41:39;;;;;;;1.30;1.20;;;9.30;99.90;;;;;;5124631;28;20168;-79
2021/12/27 13:44:08;;;;;;;1.70;1.20;;;9.30;99.90;;;;;;5123401;28;20225;-80
2021/12/27 13:46:36;;;;;;;1.70;1.30;;;9.20;99.90;;;;;;5125187;28;20190;-80
2021/12/27 13:49:04;;;;;;;1.60;1.43;;;9.20;99.90;;;;;;5123830;28;20263;-79
2021/12/27 13:51:33;;;;;;;1.33;1.13;;;9.20;99.90;;;;;;5124512;28;20168;-79
2021/12/27 13:54:00;;;;;;;1.77;1.60;;;9.20;99.90;;;;;;5123357;28;20182;-80
2021/12/27 13:56:29;;;;;;;3.53;3.23;;;9.20;99.90;;;;;;5125416;28;20183;-80
2021/12/27 13:58:55;;;;;;;1.83;1.70;;;9.10;99.90;;;;;;5125471;28;20180;-80
2021/12/27 14:01:22;;;;;;;3.53;2.80;;;9.00;99.90;;;;;;5123897;28;20179;-80
2021/12/27 14:03:52;;;;;;;2.33;2.10;;;9.00;99.90;;;;;;5123111;28;20199;-80
2021/12/27 14:06:20;;;;;;;2.30;2.00;;;9.00;99.90;;;;;;5122912;28;20619;-79
2021/12/27 14:09:00;;;;;;;2.40;2.20;;;8.90;99.90;;;;;;5123196;28;20269;-79
2021/12/27 14:11:27;;;;;;;3.87;2.77;;;8.90;99.90;;;;;;5123771;28;20196;-79
2021/12/27 14:14:04;;;;;;;2.47;2.13;;;8.80;99.90;;;;;;5127223;28;20191;-79
2021/12/27 14:16:34;;;;;;;2.57;1.80;;;8.70;99.90;;;;;;5128637;28;20205;-79
2021/12/27 14:19:10;;;;;;;1.97;1.70;;;8.70;99.90;;;;;;5128006;28;20175;-79
2021/12/27 14:21:56;;;;;;;2.13;1.93;;;8.70;99.90;;;;;;5122520;28;20269;-80
2021/12/27 14:24:33;;;;;;;2.10;1.90;;;8.70;99.90;;;;;;5121941;28;20195;-80
2021/12/27 14:27:01;;;;;;;2.60;1.70;;;8.70;99.90;;;;;;5121646;28;20194;-79
2021/12/27 14:29:27;;;;;;;3.47;1.93;;;8.80;99.90;;;;;;5122523;28;20581;-80
2021/12/27 14:31:56;;;;;;;4.17;2.80;;;8.80;99.90;;;;;;5121774;28;20705;-79
2021/12/27 14:34:40;;;;;;;3.80;2.23;;;8.90;99.90;;;;;;5121111;28;20168;-79
2021/12/27 14:37:07;;;;;;;4.90;2.40;;;9.00;99.90;;;;;;5120065;28;20222;-79
2021/12/27 14:39:33;;;;;;;2.60;2.07;;;8.70;99.90;;;;;;5122766;28;20203;-80
2021/12/27 14:41:59;;;;;;;3.90;2.27;;;8.70;99.90;;;;;;5122448;28;20175;-80
2021/12/27 14:44:25;;;;;;;3.40;2.40;;;;;;;;;;5123038;28;20335;-79
2021/12/27 14:46:53;;;;;;;2.40;1.70;;;8.60;99.90;;;;;;5123289;28;20186;-80
2021/12/27 14:49:20;;;;;;;3.70;2.70;;;8.60;99.90;;;;;;5121761;28;20172;-80
2021/12/27 14:51:45;;;;;;;8.03;2.50;;;8.50;99.90;;;;;;5121417;28;20183;-80
2021/12/27 14:54:11;;;;;;;3.70;2.40;;;;;;;;;;5123003;28;20526;-79
2021/12/27 14:56:37;;;;;;;3.00;2.37;;;8.20;99.90;;;;;;5121910;28;20197;-79
2021/12/27 14:59:03;;;;;;;4.33;2.10;;;8.40;99.90;;;;;;5121901;28;20188;-80
2021/12/27 15:01:28;;;;;;;2.17;1.80;;;8.40;99.90;;;;;;5122929;28;20243;-78
2021/12/27 15:03:55;;;;;;;5.03;2.53;;;8.20;99.90;;;;;;5122328;28;20196;-79
2021/12/27 15:06:21;;;;;;;4.13;2.60;;;8.20;99.90;;;;;;5123556;28;20212;-80
2021/12/27 15:08:52;;;;;;;10.40;3.93;;;8.10;99.90;;;;;;5123414;28;20201;-80
2021/12/27 15:11:18;;;;;;;4.83;3.37;;;8.00;99.90;;;;;;5123757;28;20198;-79
2021/12/27 15:13:44;;;;;;;8.33;3.53;;;8.00;99.90;;;;;;5120148;28;20716;-79
2021/12/27 15:16:09;;;;;;;14.87;4.43;;;7.90;99.90;;;;;;5122204;28;20252;-79
2021/12/27 15:18:35;;;;;;;15.10;4.47;;;7.90;99.90;;;;;;5122327;28;20182;-80
2021/12/27 15:21:01;;;;;;;5.83;3.37;;;7.80;99.90;;;;;;5122447;28;20167;-79
2021/12/27 15:23:26;;;;;;;7.33;3.90;;;7.80;99.90;;;;;;5121480;28;20266;-79
2021/12/27 15:25:52;;;;;;;30.70;4.27;;;7.70;99.90;;;;;;5122611;28;20195;-79
2021/12/27 15:28:18;;;;;;;7.07;3.77;;;7.60;99.90;;;;;;5122863;28;20180;-79
2021/12/27 15:30:44;;;;;;;4.27;2.50;;;7.60;99.90;;;;;;5121907;28;20172;-79
2021/12/27 15:33:09;;;;;;;8.70;6.20;;;7.50;99.90;;;;;;5122870;28;20186;-79
2021/12/27 15:35:35;;;;;;;6.60;3.83;;;7.50;99.90;;;;;;5122883;28;20616;-79
2021/12/27 15:38:01;;;;;;;5.73;4.00;;;7.40;99.90;;;;;;5120514;28;20677;-79
2021/12/27 15:40:26;;;;;;;16.13;9.63;;;7.40;99.90;;;;;;5121307;28;20593;-80
2021/12/27 15:42:55;;;;;;;14.83;10.17;;;7.30;99.90;;;;;;5120481;28;20180;-79
2021/12/27 15:45:24;;;;;;;13.27;9.10;;;7.20;99.90;;;;;;5120648;28;20225;-79
2021/12/27 15:47:50;;;;;;;12.27;8.47;;;7.20;99.90;;;;;;5119738;28;20675;-79
2021/12/27 15:50:16;;;;;;;15.10;10.87;;;7.20;99.90;;;;;;5122115;28;20177;-79
2021/12/27 15:52:42;;;;;;;14.83;10.17;;;7.20;99.90;;;;;;5122343;28;20186;-79
2021/12/27 15:55:09;;;;;;;16.50;10.00;;;7.20;99.90;;;;;;5123329;28;20168;-79
2021/12/27 15:57:36;;;;;;;11.93;7.47;;;7.20;99.90;;;;;;5121871;28;20188;-78
2021/12/27 16:00:05;;;;;;;11.77;7.30;;;7.20;99.90;;;;;;5119478;28;20174;-78
2021/12/27 16:02:30;;;;;;;11.73;7.37;;;7.20;99.90;;;;;;5117014;28;20186;-79
2021/12/27 16:04:56;;;;;;;9.70;6.90;;;7.20;99.90;;;;;;5117804;28;20289;-78
2021/12/27 16:07:21;;;;;;;6.97;4.40;;;7.10;99.90;;;;;;5114268;28;20255;-78
2021/12/27 16:09:47;;;;;;;7.27;5.70;;;7.00;99.90;;;;;;5115466;28;20167;-78
2021/12/27 16:12:13;;;;;;;7.17;5.67;;;6.90;99.90;;;;;;5121629;28;20173;-79
2021/12/27 16:14:38;;;;;;;6.50;4.80;;;6.90;99.90;;;;;;5122974;28;20274;-79
2021/12/27 16:17:06;;;;;;;7.73;5.40;;;6.90;99.90;;;;;;5121760;28;20248;-79
2021/12/27 16:19:32;;;;;;;9.57;5.10;;;6.80;99.90;;;;;;5121429;28;20167;-79
2021/12/27 16:21:57;;;;;;;12.27;9.30;;;6.70;99.90;;;;;;5121309;28;20251;-79
2021/12/27 16:24:23;;;;;;;12.80;8.77;;;6.60;99.90;;;;;;5121543;28;20225;-79
2021/12/27 16:26:49;;;;;;;24.70;13.67;;;6.50;99.90;;;;;;5120022;28;20188;-79
2021/12/27 16:29:15;;;;;;;11.10;9.07;;;6.40;99.90;;;;;;5120865;28;20181;-79
2021/12/27 16:31:41;;;;;;;6.77;5.53;;;6.40;99.90;;;;;;5120578;28;20163;-79
2021/12/27 16:34:10;;;;;;;7.40;4.90;;;6.40;99.90;;;;;;5119428;28;20276;-79
2021/12/27 16:36:40;;;;;;;6.87;4.67;;;6.40;99.90;;;;;;5124612;28;20191;-78
2021/12/27 16:39:07;;;;;;;8.23;5.40;;;6.30;99.90;;;;;;5125874;28;20635;-79
2021/12/27 16:41:32;;;;;;;6.47;4.50;;;6.20;99.90;;;;;;5125831;28;20232;-79
2021/12/27 16:43:58;;;;;;;8.03;5.47;;;6.10;99.90;;;;;;5126220;28;20211;-79
2021/12/27 16:46:26;;;;;;;8.53;5.70;;;;;;;;;;5124968;28;20591;-79
2021/12/27 16:48:52;;;;;;;7.07;4.83;;;6.10;99.90;;;;;;5123594;28;20255;-79
2021/12/27 16:51:18;;;;;;;6.67;5.10;;;;;;;;;;5122824;28;20192;-79
2021/12/27 16:53:43;;;;;;;11.90;5.03;;;6.00;99.90;;;;;;5124131;28;20662;-79
2021/12/27 16:56:09;;;;;;;5.43;4.80;;;;;;;;;;5124084;28;20199;-79
2021/12/27 16:58:35;;;;;;;8.07;5.60;;;6.10;99.90;;;;;;5123612;28;20180;-79
2021/12/27 17:01:01;;;;;;;5.30;4.77;;;;;;;;;;5122474;28;20192;-79
2021/12/27 17:03:27;;;;;;;7.43;5.33;;;6.20;99.90;;;;;;5123286;28;20219;-78
2021/12/27 17:05:53;;;;;;;11.80;9.43;;;6.20;99.90;;;;;;5123408;28;20173;-79
2021/12/27 17:08:19;;;;;;;12.20;8.13;;;6.10;99.90;;;;;;5122327;28;20278;-79
2021/12/27 17:10:45;;;;;;;14.43;8.33;;;6.10;99.90;;;;;;5122154;28;20612;-79
2021/12/27 17:13:12;;;;;;;13.73;9.20;;;6.10;99.90;;;;;;5120944;28;20275;-79
2021/12/27 17:15:40;;;;;;;12.57;8.90;;;6.10;99.90;;;;;;5121282;28;20186;-78
2021/12/27 17:18:08;;;;;;;11.60;8.10;;;6.20;99.90;;;;;;5122389;28;20195;-79
2021/12/27 17:20:35;;;;;;;9.53;6.83;;;6.00;99.90;;;;;;5122319;28;20180;-79
2021/12/27 17:23:02;;;;;;;13.30;8.23;;;6.00;99.90;;;;;;5122256;28;20449;-79
2021/12/27 17:25:28;;;;;;;25.50;18.17;;;;;;;;;;5120693;28;20413;-78
2021/12/27 17:27:54;;;;;;;71.07;42.33;;;;;;;;;;5120641;28;20429;-79
2021/12/27 17:30:22;;;;;;;26.43;17.67;;;5.90;99.90;;;;;;5121796;28;20409;-78
2021/12/27 17:32:48;;;;;;;11.93;8.83;;;5.90;99.90;;;;;;5122121;28;20429;-79
2021/12/27 17:35:14;;;;;;;9.10;5.80;;;;;;;;;;5120753;28;20176;-79
2021/12/27 17:37:40;;;;;;;10.03;6.40;;;5.90;99.90;;;;;;5121889;28;20426;-79
2021/12/27 17:40:10;;;;;;;10.87;7.53;;;5.90;99.90;;;;;;5120459;28;20516;-79
2021/12/27 17:42:35;;;;;;;14.70;10.70;;;5.90;99.90;;;;;;5122296;28;20408;-79
2021/12/27 17:45:04;;;;;;;15.73;10.57;;;5.90;99.90;;;;;;5121599;28;20453;-79
2021/12/27 17:47:30;;;;;;;22.87;13.37;;;6.00;99.90;;;;;;5120201;28;20192;-78
2021/12/27 17:49:56;;;;;;;13.77;9.33;;;;;;;;;;5120265;28;20199;-78
2021/12/27 17:52:22;;;;;;;12.17;7.70;;;5.90;99.90;;;;;;5122184;28;20417;-79
2021/12/27 17:54:48;;;;;;;13.73;10.33;;;5.90;99.90;;;;;;5120556;28;20405;-79
2021/12/27 17:57:14;;;;;;;17.90;10.50;;;6.00;99.90;;;;;;5120243;28;20649;-79
2021/12/27 17:59:39;;;;;;;24.33;14.47;;;6.00;99.90;;;;;;5120670;28;20407;-79
2021/12/27 18:02:05;;;;;;;13.80;8.17;;;6.00;99.90;;;;;;5121999;28;20180;-79
2021/12/27 18:04:31;;;;;;;11.17;6.23;;;5.90;99.90;;;;;;5122190;28;20618;-79
2021/12/27 18:06:56;;;;;;;14.50;8.37;;;5.90;99.90;;;;;;5120441;28;20200;-79
2021/12/27 18:09:24;;;;;;;11.87;7.73;;;5.90;99.90;;;;;;5120222;28;20183;-79
2021/12/27 18:11:49;;;;;;;6.67;4.87;;;5.90;99.90;;;;;;5120453;28;20244;-79
2021/12/27 18:14:16;;;;;;;8.77;5.73;;;5.90;99.90;;;;;;5121723;28;20780;-79
2021/12/27 18:16:43;;;;;;;7.27;5.10;;;6.00;99.90;;;;;;5119910;28;20665;-78
2021/12/27 18:19:08;;;;;;;5.03;4.23;;;5.90;99.90;;;;;;5121748;28;20462;-79
2021/12/27 18:21:36;;;;;;;7.20;4.47;;;;;;;;;;5122221;28;20409;-79
2021/12/27 18:24:06;;;;;;;7.10;4.30;;;5.90;99.90;;;;;;5120729;28;20200;-79
2021/12/27 18:26:34;;;;;;;6.57;4.80;;;6.00;99.90;;;;;;5119524;28;20203;-79
2021/12/27 18:29:02;;;;;;;6.47;4.17;;;;;;;;;;5119678;28;20432;-79
2021/12/27 18:31:28;;;;;;;5.90;4.37;;;6.00;99.90;;;;;;5120749;28;20413;-79
2021/12/27 18:33:54;;;;;;;5.33;4.47;;;6.00;99.90;;;;;;5120669;28;20571;-79
2021/12/27 18:36:21;;;;;;;11.20;3.93;;;6.00;99.90;;;;;;5119950;28;20199;-79
2021/12/27 18:38:46;;;;;;;4.20;3.40;;;6.00;99.90;;;;;;5119730;28;20599;-79
2021/12/27 18:41:12;;;;;;;4.00;3.47;;;6.00;99.90;;;;;;5120931;28;20401;-78
2021/12/27 18:43:39;;;;;;;5.57;4.00;;;6.00;99.90;;;;;;5121275;28;20195;-79
2021/12/27 18:46:05;;;;;;;3.77;3.33;;;;;;;;;;5122101;28;20180;-79
2021/12/27 18:48:31;;;;;;;3.83;3.23;;;6.00;99.90;;;;;;5122869;28;20178;-79
2021/12/27 18:50:57;;;;;;;4.23;3.37;;;6.00;99.90;;;;;;5123230;28;20427;-79
2021/12/27 18:53:23;;;;;;;4.67;3.83;;;6.00;99.90;;;;;;5121895;28;20180;-79
2021/12/27 18:55:53;;;;;;;5.67;4.03;;;5.90;99.90;;;;;;5122745;28;20198;-79
2021/12/27 18:58:19;;;;;;;6.20;4.73;;;5.90;99.90;;;;;;5122863;28;20670;-79
2021/12/27 19:00:45;;;;;;;5.00;4.20;;;5.90;99.90;;;;;;5123367;28;20191;-79
2021/12/27 19:03:12;;;;;;;6.43;4.70;;;5.90;99.90;;;;;;5120583;28;20203;-78
2021/12/27 19:05:38;;;;;;;4.93;3.90;;;5.90;99.90;;;;;;5121931;28;20165;-78
2021/12/27 19:08:04;;;;;;;5.40;4.03;;;5.90;99.90;;;;;;5118180;28;20653;-78
2021/12/27 19:10:30;;;;;;;5.13;4.03;;;5.90;99.90;;;;;;5119575;28;20227;-78
2021/12/27 19:12:56;;;;;;;4.23;3.83;;;5.90;99.90;;;;;;5121393;28;20181;-78
2021/12/27 19:15:22;;;;;;;4.33;3.93;;;5.90;99.90;;;;;;5123549;28;20237;-81
2021/12/27 19:17:48;;;;;;;5.57;4.10;;;;;;;;;;5123559;28;20191;-79
2021/12/27 19:20:14;;;;;;;4.53;3.77;;;5.90;99.90;;;;;;5122346;28;20167;-79
2021/12/27 19:22:42;;;;;;;5.37;4.00;;;5.90;99.90;;;;;;5122719;28;20172;-79
2021/12/27 19:25:08;;;;;;;5.60;4.20;;;5.90;99.90;;;;;;5121481;28;20211;-79
2021/12/27 19:27:34;;;;;;;7.53;5.17;;;6.00;99.90;;;;;;5120362;28;20430;-79
2021/12/27 19:30:00;;;;;;;6.33;4.27;;;5.90;99.90;;;;;;5122750;28;20477;-79
2021/12/27 19:32:26;;;;;;;5.33;4.50;;;5.90;99.90;;;;;;5121651;28;20520;-79
2021/12/27 19:34:51;;;;;;;5.77;4.77;;;6.00;99.90;;;;;;5124296;28;20178;-78
2021/12/27 19:37:17;;;;;;;4.77;3.80;;;6.00;99.90;;;;;;5124364;28;20200;-78
2021/12/27 19:39:52;;;;;;;7.30;4.37;;;;;;;;;;5122000;28;20182;-79
2021/12/27 19:42:18;;;;;;;8.17;4.30;;;6.00;99.90;;;;;;5121032;28;20220;-79
2021/12/27 19:44:43;;;;;;;4.77;4.07;;;6.00;99.90;;;;;;5122834;28;20200;-79
2021/12/27 19:47:09;;;;;;;5.73;4.43;;;6.00;99.90;;;;;;5122198;28;20187;-79
2021/12/27 19:49:35;;;;;;;4.47;3.77;;;6.00;99.90;;;;;;5124016;28;20175;-78
2021/12/27 19:52:00;;;;;;;7.93;4.30;;;6.00;99.90;;;;;;5126569;28;20194;-78
2021/12/27 19:54:26;;;;;;;3.80;3.30;;;5.90;99.90;;;;;;5126674;28;20186;-79
2021/12/27 19:56:53;;;;;;;5.10;4.60;;;6.00;99.90;;;;;;5125328;28;20191;-79
2021/12/27 19:59:19;;;;;;;6.40;4.50;;;6.00;99.90;;;;;;5123288;28;20229;-79
2021/12/27 20:01:45;;;;;;;4.57;4.13;;;6.00;99.90;;;;;;5122883;28;20237;-79
2021/12/27 20:04:11;;;;;;;5.03;4.37;;;6.00;99.90;;;;;;5122721;28;20283;-79
2021/12/27 20:06:37;;;;;;;5.87;4.97;;;5.90;99.90;;;;;;5122746;28;20195;-79
2021/12/27 20:09:04;;;;;;;8.33;5.97;;;5.90;99.90;;;;;;5121599;28;20428;-79
2021/12/27 20:11:29;;;;;;;6.20;4.73;;;5.90;99.90;;;;;;5122492;28;20176;-79
2021/12/27 20:13:55;;;;;;;8.90;3.60;;;5.90;99.90;;;;;;5122189;28;20196;-80
2021/12/27 20:16:21;;;;;;;4.27;3.37;;;5.90;99.90;;;;;;5122237;28;20199;-79
2021/12/27 20:18:47;;;;;;;5.50;4.07;;;5.90;99.90;;;;;;5122048;28;20210;-79
2021/12/27 20:21:13;;;;;;;5.87;4.33;;;5.80;99.90;;;;;;5121911;28;20176;-79
2021/12/27 20:23:45;;;;;;;6.50;5.03;;;5.90;99.90;;;;;;5123699;28;20250;-80
2021/12/27 20:26:10;;;;;;;8.03;4.77;;;6.10;99.90;;;;;;5123913;28;20432;-81
2021/12/27 20:28:36;;;;;;;9.37;5.73;;;5.80;99.90;;;;;;5122295;28;20429;-80
2021/12/27 20:31:02;;;;;;;6.13;5.10;;;5.80;99.90;;;;;;5121957;28;20182;-80
2021/12/27 20:33:28;;;;;;;9.57;5.97;;;5.80;99.90;;;;;;5121992;28;20233;-81
2021/12/27 20:35:54;;;;;;;8.10;5.97;;;5.60;99.90;;;;;;5120519;28;20183;-81
2021/12/27 20:38:23;;;;;;;7.70;6.00;;;5.60;99.90;;;;;;5121861;28;20500;-81
2021/12/27 20:40:50;;;;;;;9.67;5.93;;;5.50;99.90;;;;;;5120935;28;20538;-81
2021/12/27 20:43:16;;;;;;;8.63;6.10;;;5.50;99.90;;;;;;5122213;28;20441;-81
2021/12/27 20:45:42;;;;;;;6.83;5.50;;;5.40;99.90;;;;;;5121642;28;20189;-81
2021/12/27 20:48:08;;;;;;;8.17;6.10;;;5.40;99.90;;;;;;5120716;28;20258;-81
2021/12/27 20:50:34;;;;;;;9.20;5.80;;;5.40;99.90;;;;;;5122065;28;20208;-81
2021/12/27 20:53:00;;;;;;;11.13;6.50;;;5.30;99.90;;;;;;5121574;28;20740;-81
2021/12/27 20:55:26;;;;;;;6.97;5.50;;;5.30;99.90;;;;;;5120979;28;20493;-81
2021/12/27 20:57:52;;;;;;;9.77;6.63;;;5.30;99.90;;;;;;5120998;28;20195;-81
2021/12/27 21:00:24;;;;;;;9.97;5.90;;;5.30;99.90;;;;;;5122822;28;20556;-81
2021/12/27 21:02:50;;;;;;;9.30;6.53;;;5.30;99.90;;;;;;5121735;28;20617;-81
2021/12/27 21:05:18;;;;;;;6.73;5.70;;;5.30;99.90;;;;;;5121131;28;20418;-81
2021/12/27 21:07:45;;;;;;;5.73;4.90;;;5.30;99.90;;;;;;5121260;28;20226;-81
2021/12/27 21:10:11;;;;;;;5.90;5.20;;;5.20;99.90;;;;;;5120034;28;20246;-82
2021/12/27 21:12:37;;;;;;;7.00;5.50;;;5.30;99.90;;;;;;5122127;28;20183;-81
2021/12/27 21:15:04;;;;;;;6.20;5.60;;;5.30;99.90;;;;;;5122740;28;20406;-81
2021/12/27 21:17:30;;;;;;;6.37;5.77;;;5.20;99.90;;;;;;5122280;28;20207;-82